sensor_id;sensor_type;location;lat;lon;timestamp;pressure;altitude;pressure_sealevel;temperature;humidity
72438;BME280;60444;43.534;-5.674;2022-08-20T00:00:59;102052.97;;;20.72;85.50
72438;BME280;60444;43.534;-5.674;2022-08-20T00:03:31;102040.53;;;20.66;85.57
72438;BME280;60444;43.534;-5.674;2022-08-20T00:06:03;102052.75;;;20.75;86.39
72438;BME280;60444;43.534;-5.674;2022-08-20T00:08:30;102043.16;;;20.67;86.63
72438;BME280;60444;43.534;-5.674;2022-08-20T00:10:57;102044.72;;;20.72;85.40
72438;BME280;60444;43.534;-5.674;2022-08-20T00:13:33;102047.47;;;20.72;85.17
72438;BME280;60444;43.534;-5.674;2022-08-20T00:15:59;102015.34;;;20.59;84.99
72438;BME280;60444;43.534;-5.674;2022-08-20T00:18:25;102042.97;;;20.71;85.48
72438;BME280;60444;43.534;-5.674;2022-08-20T00:20:53;102019.84;;;20.60;85.18
72438;BME280;60444;43.534;-5.674;2022-08-20T00:23:19;102034.91;;;20.67;85.59
72438;BME280;60444;43.534;-5.674;2022-08-20T00:25:48;101990.50;;;20.48;84.80
72438;BME280;60444;43.534;-5.674;2022-08-20T00:28:14;102002.03;;;20.53;85.39
72438;BME280;60444;43.534;-5.674;2022-08-20T00:30:41;102022.38;;;20.63;85.57
72438;BME280;60444;43.534;-5.674;2022-08-20T00:33:11;102002.16;;;20.52;85.03
72438;BME280;60444;43.534;-5.674;2022-08-20T00:35:41;101992.34;;;20.48;84.80
72438;BME280;60444;43.534;-5.674;2022-08-20T00:38:08;101995.00;;;20.49;85.25
72438;BME280;60444;43.534;-5.674;2022-08-20T00:40:49;102006.44;;;20.56;85.41
72438;BME280;60444;43.534;-5.674;2022-08-20T00:45:52;101991.69;;;20.44;85.37
72438;BME280;60444;43.534;-5.674;2022-08-20T00:48:31;102003.03;;;20.52;85.47
72438;BME280;60444;43.534;-5.674;2022-08-20T00:51:17;102006.75;;;20.51;85.67
72438;BME280;60444;43.534;-5.674;2022-08-20T00:53:45;101985.66;;;20.39;85.78
72438;BME280;60444;43.534;-5.674;2022-08-20T00:56:12;101993.91;;;20.39;86.24
72438;BME280;60444;43.534;-5.674;2022-08-20T00:58:38;101985.66;;;20.39;85.30
72438;BME280;60444;43.534;-5.674;2022-08-20T01:01:07;102001.91;;;20.42;85.53
72438;BME280;60444;43.534;-5.674;2022-08-20T01:03:33;101971.34;;;20.22;85.75
72438;BME280;60444;43.534;-5.674;2022-08-20T01:05:59;101999.16;;;20.42;85.49
72438;BME280;60444;43.534;-5.674;2022-08-20T01:08:25;102001.91;;;20.42;86.69
72438;BME280;60444;43.534;-5.674;2022-08-20T01:10:52;101990.50;;;20.36;86.92
72438;BME280;60444;43.534;-5.674;2022-08-20T01:13:29;101985.09;;;20.34;87.45
72438;BME280;60444;43.534;-5.674;2022-08-20T01:15:58;101975.31;;;20.30;86.68
72438;BME280;60444;43.534;-5.674;2022-08-20T01:18:25;101975.44;;;20.29;86.65
72438;BME280;60444;43.534;-5.674;2022-08-20T01:21:02;101994.22;;;20.35;86.25
72438;BME280;60444;43.534;-5.674;2022-08-20T01:24:35;101971.34;;;20.22;86.12
72438;BME280;60444;43.534;-5.674;2022-08-20T01:26:34;101998.50;;;20.26;86.13
72438;BME280;60444;43.534;-5.674;2022-08-20T01:29:09;101979.50;;;20.23;86.53
72438;BME280;60444;43.534;-5.674;2022-08-20T01:31:39;101989.06;;;20.30;86.69
72438;BME280;60444;43.534;-5.674;2022-08-20T01:34:11;101991.03;;;20.28;87.45
72438;BME280;60444;43.534;-5.674;2022-08-20T01:36:43;101950.19;;;20.10;87.33
72438;BME280;60444;43.534;-5.674;2022-08-20T01:39:13;101984.66;;;20.28;87.07
72438;BME280;60444;43.534;-5.674;2022-08-20T01:44:44;101972.44;;;20.19;86.86
72438;BME280;60444;43.534;-5.674;2022-08-20T01:47:19;101978.81;;;20.20;86.98
72438;BME280;60444;43.534;-5.674;2022-08-20T01:49:49;101960.28;;;20.09;86.70
72438;BME280;60444;43.534;-5.674;2022-08-20T01:52:28;101988.69;;;20.22;86.73
72438;BME280;60444;43.534;-5.674;2022-08-20T01:54:56;101986.97;;;20.21;86.84
72438;BME280;60444;43.534;-5.674;2022-08-20T01:57:23;101978.31;;;20.13;87.33
72438;BME280;60444;43.534;-5.674;2022-08-20T01:59:52;101991.94;;;20.15;86.32
72438;BME280;60444;43.534;-5.674;2022-08-20T02:02:18;101990.78;;;20.19;88.50
72438;BME280;60444;43.534;-5.674;2022-08-20T02:04:44;101965.56;;;20.00;87.35
72438;BME280;60444;43.534;-5.674;2022-08-20T02:07:16;101994.53;;;20.18;87.48
72438;BME280;60444;43.534;-5.674;2022-08-20T02:09:43;101970.84;;;20.03;86.92
72438;BME280;60444;43.534;-5.674;2022-08-20T02:12:11;101972.69;;;20.02;87.59
72438;BME280;60444;43.534;-5.674;2022-08-20T02:14:41;102000.19;;;20.15;87.82
72438;BME280;60444;43.534;-5.674;2022-08-20T02:17:09;101982.50;;;20.06;87.41
72438;BME280;60444;43.534;-5.674;2022-08-20T02:19:41;101988.75;;;20.08;87.79
72438;BME280;60444;43.534;-5.674;2022-08-20T02:22:46;101984.47;;;20.04;87.70
72438;BME280;60444;43.534;-5.674;2022-08-20T02:25:12;102003.38;;;20.09;87.39
72438;BME280;60444;43.534;-5.674;2022-08-20T02:27:41;101997.78;;;20.10;87.76
72438;BME280;60444;43.534;-5.674;2022-08-20T02:30:11;101992.28;;;20.10;87.44
72438;BME280;60444;43.534;-5.674;2022-08-20T02:32:37;101977.22;;;20.03;87.30
72438;BME280;60444;43.534;-5.674;2022-08-20T02:35:05;101992.28;;;20.10;87.73
72438;BME280;60444;43.534;-5.674;2022-08-20T02:37:33;101973.91;;;19.98;87.72
72438;BME280;60444;43.534;-5.674;2022-08-20T02:40:00;101964.69;;;19.99;87.99
72438;BME280;60444;43.534;-5.674;2022-08-20T02:42:26;101979.84;;;20.05;87.12
72438;BME280;60444;43.534;-5.674;2022-08-20T02:44:51;101960.19;;;19.98;87.35
72438;BME280;60444;43.534;-5.674;2022-08-20T02:47:18;101985.00;;;20.09;87.46
72438;BME280;60444;43.534;-5.674;2022-08-20T02:49:43;101970.59;;;20.06;87.68
72438;BME280;60444;43.534;-5.674;2022-08-20T02:52:09;101960.06;;;20.00;88.07
72438;BME280;60444;43.534;-5.674;2022-08-20T02:54:35;101962.59;;;20.03;88.21
72438;BME280;60444;43.534;-5.674;2022-08-20T02:57:00;101958.75;;;20.05;87.13
72438;BME280;60444;43.534;-5.674;2022-08-20T02:59:27;101957.09;;;20.03;87.47
72438;BME280;60444;43.534;-5.674;2022-08-20T03:01:53;101938.75;;;19.91;88.57
72438;BME280;60444;43.534;-5.674;2022-08-20T03:04:18;101944.25;;;19.91;88.31
72438;BME280;60444;43.534;-5.674;2022-08-20T03:06:44;101957.00;;;20.04;87.80
72438;BME280;60444;43.534;-5.674;2022-08-20T03:09:09;101940.06;;;19.98;87.96
72438;BME280;60444;43.534;-5.674;2022-08-20T03:11:35;101962.38;;;20.06;87.71
72438;BME280;60444;43.534;-5.674;2022-08-20T03:14:04;101970.53;;;20.07;88.16
72438;BME280;60444;43.534;-5.674;2022-08-20T03:16:30;101952.13;;;19.95;87.26
72438;BME280;60444;43.534;-5.674;2022-08-20T03:18:55;101947.41;;;19.97;87.63
72438;BME280;60444;43.534;-5.674;2022-08-20T03:21:21;101967.97;;;20.04;87.60
72438;BME280;60444;43.534;-5.674;2022-08-20T03:23:47;101966.34;;;20.02;87.01
72438;BME280;60444;43.534;-5.674;2022-08-20T03:26:13;101930.69;;;19.88;87.42
72438;BME280;60444;43.534;-5.674;2022-08-20T03:28:39;101955.25;;;20.03;88.26
72438;BME280;60444;43.534;-5.674;2022-08-20T03:31:05;101957.88;;;20.05;87.89
72438;BME280;60444;43.534;-5.674;2022-08-20T03:33:31;101951.50;;;20.04;87.46
72438;BME280;60444;43.534;-5.674;2022-08-20T03:35:57;101933.69;;;19.97;88.03
72438;BME280;60444;43.534;-5.674;2022-08-20T03:38:23;101943.38;;;20.03;87.92
72438;BME280;60444;43.534;-5.674;2022-08-20T03:40:49;101915.00;;;19.90;88.37
72438;BME280;60444;43.534;-5.674;2022-08-20T03:43:16;101917.66;;;19.91;88.23
72438;BME280;60444;43.534;-5.674;2022-08-20T03:45:43;101929.09;;;19.98;88.14
72438;BME280;60444;43.534;-5.674;2022-08-20T03:48:11;101926.66;;;19.93;87.95
72438;BME280;60444;43.534;-5.674;2022-08-20T03:50:38;101909.63;;;19.88;87.60
72438;BME280;60444;43.534;-5.674;2022-08-20T03:53:06;101922.16;;;19.92;88.06
72438;BME280;60444;43.534;-5.674;2022-08-20T03:55:33;101932.81;;;19.97;88.07
72438;BME280;60444;43.534;-5.674;2022-08-20T03:58:04;101931.72;;;19.99;87.67
72438;BME280;60444;43.534;-5.674;2022-08-20T04:00:41;101917.53;;;19.93;88.04
72438;BME280;60444;43.534;-5.674;2022-08-20T04:03:08;101908.53;;;19.91;88.07
72438;BME280;60444;43.534;-5.674;2022-08-20T04:05:36;101913.03;;;19.92;87.63
72438;BME280;60444;43.534;-5.674;2022-08-20T04:08:14;101922.69;;;19.97;88.04
72438;BME280;60444;43.534;-5.674;2022-08-20T04:10:41;101921.81;;;19.97;87.83
72438;BME280;60444;43.534;-5.674;2022-08-20T04:13:07;101920.97;;;19.96;88.00
72438;BME280;60444;43.534;-5.674;2022-08-20T04:15:34;101920.97;;;19.96;87.85
72438;BME280;60444;43.534;-5.674;2022-08-20T04:18:01;101924.66;;;19.95;88.24
72438;BME280;60444;43.534;-5.674;2022-08-20T04:20:33;101923.91;;;19.93;87.17
72438;BME280;60444;43.534;-5.674;2022-08-20T04:22:59;101890.47;;;19.74;87.27
72438;BME280;60444;43.534;-5.674;2022-08-20T04:25:30;101923.91;;;19.93;87.67
72438;BME280;60444;43.534;-5.674;2022-08-20T04:27:57;101916.09;;;19.87;88.02
72438;BME280;60444;43.534;-5.674;2022-08-20T04:30:23;101911.59;;;19.86;87.61
72438;BME280;60444;43.534;-5.674;2022-08-20T04:32:50;101891.47;;;19.73;87.35
72438;BME280;60444;43.534;-5.674;2022-08-20T04:35:17;101895.88;;;19.76;87.74
72438;BME280;60444;43.534;-5.674;2022-08-20T04:37:45;101905.66;;;19.80;88.43
72438;BME280;60444;43.534;-5.674;2022-08-20T04:40:14;101919.81;;;19.86;87.93
72438;BME280;60444;43.534;-5.674;2022-08-20T04:42:58;101904.00;;;19.77;88.02
72438;BME280;60444;43.534;-5.674;2022-08-20T04:45:24;101916.53;;;19.81;87.82
72438;BME280;60444;43.534;-5.674;2022-08-20T04:47:50;101906.19;;;19.72;88.28
72438;BME280;60444;43.534;-5.674;2022-08-20T04:50:17;101898.94;;;19.71;88.60
72438;BME280;60444;43.534;-5.674;2022-08-20T04:52:43;101920.34;;;19.79;88.23
72438;BME280;60444;43.534;-5.674;2022-08-20T04:55:09;101904.75;;;19.67;88.64
72438;BME280;60444;43.534;-5.674;2022-08-20T04:57:35;101932.13;;;19.81;88.13
72438;BME280;60444;43.534;-5.674;2022-08-20T05:00:08;101904.50;;;19.70;88.06
72438;BME280;60444;43.534;-5.674;2022-08-20T05:02:35;101916.94;;;19.75;88.31
72438;BME280;60444;43.534;-5.674;2022-08-20T05:05:05;101912.75;;;19.70;88.19
72438;BME280;60444;43.534;-5.674;2022-08-20T05:07:43;101913.63;;;19.70;88.01
72438;BME280;60444;43.534;-5.674;2022-08-20T05:10:13;101918.50;;;19.79;87.76
72438;BME280;60444;43.534;-5.674;2022-08-20T05:12:40;101908.16;;;19.70;88.26
72438;BME280;60444;43.534;-5.674;2022-08-20T05:15:07;101903.84;;;19.66;88.80
72438;BME280;60444;43.534;-5.674;2022-08-20T05:17:39;101891.44;;;19.60;88.33
72438;BME280;60444;43.534;-5.674;2022-08-20T05:20:06;101923.44;;;19.74;88.22
72438;BME280;60444;43.534;-5.674;2022-08-20T05:22:32;101910.91;;;19.70;88.40
72438;BME280;60444;43.534;-5.674;2022-08-20T05:24:57;101912.56;;;19.73;89.18
72438;BME280;60444;43.534;-5.674;2022-08-20T05:27:26;101927.63;;;19.80;88.36
72438;BME280;60444;43.534;-5.674;2022-08-20T05:29:54;101848.13;;;19.39;87.96
72438;BME280;60444;43.534;-5.674;2022-08-20T05:32:20;101905.53;;;19.69;88.45
72438;BME280;60444;43.534;-5.674;2022-08-20T05:34:46;101909.94;;;19.71;88.11
72438;BME280;60444;43.534;-5.674;2022-08-20T05:37:12;101899.38;;;19.65;88.41
72438;BME280;60444;43.534;-5.674;2022-08-20T05:39:38;101906.59;;;19.66;88.39
72438;BME280;60444;43.534;-5.674;2022-08-20T05:42:04;101942.25;;;19.80;88.26
72438;BME280;60444;43.534;-5.674;2022-08-20T05:44:30;101932.66;;;19.73;88.45
72438;BME280;60444;43.534;-5.674;2022-08-20T05:46:55;101909.69;;;19.61;88.35
72438;BME280;60444;43.534;-5.674;2022-08-20T05:49:21;101935.19;;;19.76;88.37
72438;BME280;60444;43.534;-5.674;2022-08-20T05:51:48;101951.25;;;19.82;88.77
72438;BME280;60444;43.534;-5.674;2022-08-20T05:54:14;101939.03;;;19.74;88.37
72438;BME280;60444;43.534;-5.674;2022-08-20T05:56:40;101948.91;;;19.76;89.05
72438;BME280;60444;43.534;-5.674;2022-08-20T05:59:09;101953.22;;;19.80;88.69
72438;BME280;60444;43.534;-5.674;2022-08-20T06:01:36;101928.78;;;19.63;87.34
72438;BME280;60444;43.534;-5.674;2022-08-20T06:04:03;101923.50;;;19.60;88.56
72438;BME280;60444;43.534;-5.674;2022-08-20T06:06:48;101944.88;;;19.82;88.54
72438;BME280;60444;43.534;-5.674;2022-08-20T06:09:18;101944.00;;;19.81;88.68
72438;BME280;60444;43.534;-5.674;2022-08-20T06:11:45;101923.66;;;19.71;88.19
72438;BME280;60444;43.534;-5.674;2022-08-20T06:14:10;101933.53;;;19.74;88.09
72438;BME280;60444;43.534;-5.674;2022-08-20T06:16:36;101931.22;;;19.68;87.69
72438;BME280;60444;43.534;-5.674;2022-08-20T06:19:02;101948.81;;;19.78;87.80
72438;BME280;60444;43.534;-5.674;2022-08-20T06:21:27;101921.31;;;19.65;87.34
72438;BME280;60444;43.534;-5.674;2022-08-20T06:23:53;101936.38;;;19.72;87.94
72438;BME280;60444;43.534;-5.674;2022-08-20T06:26:18;101949.38;;;19.83;88.36
72438;BME280;60444;43.534;-5.674;2022-08-20T06:28:44;101944.22;;;19.78;88.51
72438;BME280;60444;43.534;-5.674;2022-08-20T06:31:12;101926.69;;;19.67;88.30
72438;BME280;60444;43.534;-5.674;2022-08-20T06:33:38;101953.22;;;19.80;87.66
72438;BME280;60444;43.534;-5.674;2022-08-20T06:36:03;101928.38;;;19.69;88.06
72438;BME280;60444;43.534;-5.674;2022-08-20T06:38:29;101930.22;;;19.69;88.80
72438;BME280;60444;43.534;-5.674;2022-08-20T06:40:57;101928.66;;;19.64;87.80
72438;BME280;60444;43.534;-5.674;2022-08-20T06:43:22;101928.56;;;19.66;87.76
72438;BME280;60444;43.534;-5.674;2022-08-20T06:45:48;101938.91;;;19.75;87.70
72438;BME280;60444;43.534;-5.674;2022-08-20T06:48:14;101956.53;;;19.85;87.82
72438;BME280;60444;43.534;-5.674;2022-08-20T06:50:42;101955.53;;;19.86;87.52
72438;BME280;60444;43.534;-5.674;2022-08-20T06:53:11;101900.00;;;19.56;87.58
72438;BME280;60444;43.534;-5.674;2022-08-20T06:55:38;101955.53;;;19.86;87.41
72438;BME280;60444;43.534;-5.674;2022-08-20T06:58:07;101937.06;;;19.76;86.95
72438;BME280;60444;43.534;-5.674;2022-08-20T07:00:36;101961.00;;;19.86;87.67
72438;BME280;60444;43.534;-5.674;2022-08-20T07:03:03;101949.91;;;19.88;88.00
72438;BME280;60444;43.534;-5.674;2022-08-20T07:05:31;101951.03;;;19.85;88.02
72438;BME280;60444;43.534;-5.674;2022-08-20T07:07:57;101934.84;;;19.81;87.93
72438;BME280;60444;43.534;-5.674;2022-08-20T07:10:27;101936.53;;;19.83;86.75
72438;BME280;60444;43.534;-5.674;2022-08-20T07:12:53;101927.50;;;19.81;87.17
72438;BME280;60444;43.534;-5.674;2022-08-20T07:15:25;101939.03;;;19.86;86.79
72438;BME280;60444;43.534;-5.674;2022-08-20T07:17:55;101949.38;;;19.95;87.21
72438;BME280;60444;43.534;-5.674;2022-08-20T07:20:21;101885.94;;;19.60;87.30
72438;BME280;60444;43.534;-5.674;2022-08-20T07:22:47;101941.59;;;19.89;86.81
72438;BME280;60444;43.534;-5.674;2022-08-20T07:25:15;101946.53;;;19.97;86.51
72438;BME280;60444;43.534;-5.674;2022-08-20T07:27:43;101938.22;;;19.98;86.22
72438;BME280;60444;43.534;-5.674;2022-08-20T07:30:13;101908.06;;;19.84;86.85
72438;BME280;60444;43.534;-5.674;2022-08-20T07:32:57;101940.31;;;20.07;86.80
72438;BME280;60444;43.534;-5.674;2022-08-20T07:35:23;101918.41;;;19.93;87.06
72438;BME280;60444;43.534;-5.674;2022-08-20T07:37:50;101944.69;;;20.10;85.79
72438;BME280;60444;43.534;-5.674;2022-08-20T07:40:26;101939.41;;;20.07;86.33
72438;BME280;60444;43.534;-5.674;2022-08-20T07:42:56;101946.34;;;20.12;86.55
72438;BME280;60444;43.534;-5.674;2022-08-20T07:45:23;101918.75;;;20.01;87.30
72438;BME280;60444;43.534;-5.674;2022-08-20T07:47:49;101922.50;;;20.00;86.96
72438;BME280;60444;43.534;-5.674;2022-08-20T07:50:19;101943.50;;;20.14;86.40
72438;BME280;60444;43.534;-5.674;2022-08-20T07:52:45;101933.81;;;20.08;86.43
72438;BME280;60444;43.534;-5.674;2022-08-20T07:55:13;101939.09;;;20.11;86.08
72438;BME280;60444;43.534;-5.674;2022-08-20T07:57:40;101924.25;;;20.01;86.03
72438;BME280;60444;43.534;-5.674;2022-08-20T08:00:08;101928.22;;;20.10;85.87
72438;BME280;60444;43.534;-5.674;2022-08-20T08:02:35;101936.91;;;20.16;86.12
72438;BME280;60444;43.534;-5.674;2022-08-20T08:05:02;101927.59;;;20.19;85.74
72438;BME280;60444;43.534;-5.674;2022-08-20T08:07:28;101931.00;;;20.22;85.71
72438;BME280;60444;43.534;-5.674;2022-08-20T08:09:55;101933.75;;;20.22;85.98
72438;BME280;60444;43.534;-5.674;2022-08-20T08:12:21;101923.94;;;20.18;86.38
72438;BME280;60444;43.534;-5.674;2022-08-20T08:14:50;101935.06;;;20.29;86.62
72438;BME280;60444;43.534;-5.674;2022-08-20T08:17:17;101924.31;;;20.26;85.50
72438;BME280;60444;43.534;-5.674;2022-08-20T08:19:45;101939.69;;;20.41;85.32
72438;BME280;60444;43.534;-5.674;2022-08-20T08:22:14;101935.06;;;20.42;85.65
72438;BME280;60444;43.534;-5.674;2022-08-20T08:24:41;101943.75;;;20.48;85.50
72438;BME280;60444;43.534;-5.674;2022-08-20T08:27:09;101899.25;;;20.31;85.25
72438;BME280;60444;43.534;-5.674;2022-08-20T08:29:35;101936.06;;;20.53;85.20
72438;BME280;60444;43.534;-5.674;2022-08-20T08:32:05;101932.41;;;20.53;85.66
72438;BME280;60444;43.534;-5.674;2022-08-20T08:34:33;101921.53;;;20.51;86.15
72438;BME280;60444;43.534;-5.674;2022-08-20T08:36:59;101922.97;;;20.57;85.81
72438;BME280;60444;43.534;-5.674;2022-08-20T08:39:28;101899.66;;;20.50;85.24
72438;BME280;60444;43.534;-5.674;2022-08-20T08:41:55;101885.69;;;20.40;85.29
72438;BME280;60444;43.534;-5.674;2022-08-20T08:44:27;101905.25;;;20.61;85.65
72438;BME280;60444;43.534;-5.674;2022-08-20T08:46:57;101923.59;;;20.73;86.81
72438;BME280;60444;43.534;-5.674;2022-08-20T08:49:32;101922.50;;;20.76;86.15
72438;BME280;60444;43.534;-5.674;2022-08-20T08:52:03;101924.38;;;20.75;84.19
72438;BME280;60444;43.534;-5.674;2022-08-20T08:54:35;101918.75;;;20.77;85.34
72438;BME280;60444;43.534;-5.674;2022-08-20T08:57:08;101917.66;;;20.79;86.32
72438;BME280;60444;43.534;-5.674;2022-08-20T08:59:34;101903.47;;;20.73;85.18
72438;BME280;60444;43.534;-5.674;2022-08-20T09:01:59;101926.19;;;20.87;85.75
72438;BME280;60444;43.534;-5.674;2022-08-20T09:04:39;101916.31;;;20.85;86.29
72438;BME280;60444;43.534;-5.674;2022-08-20T09:07:07;101938.41;;;20.96;84.65
72438;BME280;60444;43.534;-5.674;2022-08-20T09:09:39;101922.13;;;20.93;84.21
72438;BME280;60444;43.534;-5.674;2022-08-20T09:12:09;101932.59;;;21.00;84.35
72438;BME280;60444;43.534;-5.674;2022-08-20T09:14:35;101932.25;;;21.05;84.35
72438;BME280;60444;43.534;-5.674;2022-08-20T09:17:01;101920.13;;;21.07;84.97
72438;BME280;60444;43.534;-5.674;2022-08-20T09:19:27;101911.94;;;21.18;85.69
72438;BME280;60444;43.534;-5.674;2022-08-20T09:21:53;101896.25;;;21.08;85.01
72438;BME280;60444;43.534;-5.674;2022-08-20T09:24:18;101895.81;;;21.14;85.21
72438;BME280;60444;43.534;-5.674;2022-08-20T09:26:44;101862.38;;;20.95;85.09
72438;BME280;60444;43.534;-5.674;2022-08-20T09:29:10;101919.25;;;21.30;84.87
72438;BME280;60444;43.534;-5.674;2022-08-20T09:31:36;101887.06;;;21.20;84.63
72438;BME280;60444;43.534;-5.674;2022-08-20T09:34:02;101908.69;;;21.37;85.21
72438;BME280;60444;43.534;-5.674;2022-08-20T09:36:27;101878.59;;;21.23;85.00
72438;BME280;60444;43.534;-5.674;2022-08-20T09:38:53;101917.47;;;21.42;84.61
72438;BME280;60444;43.534;-5.674;2022-08-20T09:41:19;101900.56;;;21.35;84.35
72438;BME280;60444;43.534;-5.674;2022-08-20T09:43:45;101914.25;;;21.48;84.84
72438;BME280;60444;43.534;-5.674;2022-08-20T09:46:11;101883.16;;;21.35;84.82
72438;BME280;60444;43.534;-5.674;2022-08-20T09:48:36;101896.19;;;21.44;85.05
72438;BME280;60444;43.534;-5.674;2022-08-20T09:51:02;101887.94;;;21.44;84.80
72438;BME280;60444;43.534;-5.674;2022-08-20T09:53:31;101907.28;;;21.55;85.26
72438;BME280;60444;43.534;-5.674;2022-08-20T09:55:57;101884.44;;;21.42;85.66
72438;BME280;60444;43.534;-5.674;2022-08-20T09:58:49;101889.94;;;21.42;86.12
72438;BME280;60444;43.534;-5.674;2022-08-20T10:01:18;101915.53;;;21.55;85.89
72438;BME280;60444;43.534;-5.674;2022-08-20T10:03:46;101913.53;;;21.57;86.32
72438;BME280;60444;43.534;-5.674;2022-08-20T10:06:17;101909.66;;;21.59;86.55
72438;BME280;60444;43.534;-5.674;2022-08-20T10:08:44;101903.88;;;21.51;86.38
72438;BME280;60444;43.534;-5.674;2022-08-20T10:11:10;101914.19;;;21.60;86.56
72438;BME280;60444;43.534;-5.674;2022-08-20T10:13:37;101887.47;;;21.50;86.64
72438;BME280;60444;43.534;-5.674;2022-08-20T10:16:03;101891.50;;;21.57;86.67
72438;BME280;60444;43.534;-5.674;2022-08-20T10:18:29;101878.72;;;21.56;86.48
72438;BME280;60444;43.534;-5.674;2022-08-20T10:20:54;101878.72;;;21.56;86.62
72438;BME280;60444;43.534;-5.674;2022-08-20T10:23:20;101899.53;;;21.60;86.19
72438;BME280;60444;43.534;-5.674;2022-08-20T10:25:46;101894.25;;;21.57;86.44
72438;BME280;60444;43.534;-5.674;2022-08-20T10:28:11;101885.72;;;21.49;85.57
72438;BME280;60444;43.534;-5.674;2022-08-20T10:30:37;101900.53;;;21.59;85.67
72438;BME280;60444;43.534;-5.674;2022-08-20T10:33:02;101895.03;;;21.59;87.00
72438;BME280;60444;43.534;-5.674;2022-08-20T10:35:29;101892.50;;;21.56;87.34
72438;BME280;60444;43.534;-5.674;2022-08-20T10:37:55;101893.25;;;21.58;87.59
72438;BME280;60444;43.534;-5.674;2022-08-20T10:40:20;101907.84;;;21.71;87.42
72438;BME280;60444;43.534;-5.674;2022-08-20T10:42:46;101904.66;;;21.64;87.76
72438;BME280;60444;43.534;-5.674;2022-08-20T10:45:13;101898.41;;;21.62;87.35
72438;BME280;60444;43.534;-5.674;2022-08-20T10:47:42;101932.25;;;21.76;87.65
72438;BME280;60444;43.534;-5.674;2022-08-20T10:50:11;101936.25;;;21.72;87.53
72438;BME280;60444;43.534;-5.674;2022-08-20T10:52:36;101935.13;;;21.74;88.19
72438;BME280;60444;43.534;-5.674;2022-08-20T10:55:03;101925.00;;;21.75;88.01
72438;BME280;60444;43.534;-5.674;2022-08-20T10:57:30;101929.31;;;21.79;87.96
72438;BME280;60444;43.534;-5.674;2022-08-20T10:59:58;101932.16;;;21.77;88.21
72438;BME280;60444;43.534;-5.674;2022-08-20T11:02:26;101907.78;;;21.60;88.25
72438;BME280;60444;43.534;-5.674;2022-08-20T11:04:53;101942.41;;;21.75;88.00
72438;BME280;60444;43.534;-5.674;2022-08-20T11:07:27;101922.38;;;21.73;87.77
72438;BME280;60444;43.534;-5.674;2022-08-20T11:09:54;101917.31;;;21.67;88.18
72438;BME280;60444;43.534;-5.674;2022-08-20T11:12:20;101922.78;;;21.80;87.91
72438;BME280;60444;43.534;-5.674;2022-08-20T11:14:50;101923.31;;;21.85;87.56
72438;BME280;60444;43.534;-5.674;2022-08-20T11:17:24;101918.81;;;21.84;87.32
72438;BME280;60444;43.534;-5.674;2022-08-20T11:19:51;101925.97;;;21.86;87.20
72438;BME280;60444;43.534;-5.674;2022-08-20T11:22:17;101945.63;;;21.93;87.48
72438;BME280;60444;43.534;-5.674;2022-08-20T11:24:43;101928.59;;;21.88;87.62
72438;BME280;60444;43.534;-5.674;2022-08-20T11:27:09;101925.84;;;21.88;87.38
72438;BME280;60444;43.534;-5.674;2022-08-20T11:29:35;101910.16;;;21.88;87.05
72438;BME280;60444;43.534;-5.674;2022-08-20T11:32:04;101920.97;;;21.91;87.12
72438;BME280;60444;43.534;-5.674;2022-08-20T11:34:30;101934.78;;;22.02;87.14
72438;BME280;60444;43.534;-5.674;2022-08-20T11:36:56;101935.53;;;22.04;86.78
72438;BME280;60444;43.534;-5.674;2022-08-20T11:39:24;101911.47;;;21.95;87.07
72438;BME280;60444;43.534;-5.674;2022-08-20T11:41:49;101909.22;;;22.00;87.26
72438;BME280;60444;43.534;-5.674;2022-08-20T11:44:15;101911.22;;;21.98;86.90
72438;BME280;60444;43.534;-5.674;2022-08-20T11:46:40;101887.28;;;21.88;87.26
72438;BME280;60444;43.534;-5.674;2022-08-20T11:49:06;101916.00;;;22.07;86.82
72438;BME280;60444;43.534;-5.674;2022-08-20T11:51:32;101914.84;;;21.99;86.51
72438;BME280;60444;43.534;-5.674;2022-08-20T11:53:57;101947.72;;;22.13;87.03
72438;BME280;60444;43.534;-5.674;2022-08-20T11:56:23;101919.34;;;22.00;86.94
72438;BME280;60444;43.534;-5.674;2022-08-20T11:58:49;101951.84;;;22.18;87.02
72438;BME280;60444;43.534;-5.674;2022-08-20T12:01:14;101926.38;;;22.04;86.79
72438;BME280;60444;43.534;-5.674;2022-08-20T12:03:40;101960.63;;;22.23;87.18
72438;BME280;60444;43.534;-5.674;2022-08-20T12:06:05;101941.47;;;22.22;86.78
72438;BME280;60444;43.534;-5.674;2022-08-20T12:08:31;101913.75;;;22.12;86.84
72438;BME280;60444;43.534;-5.674;2022-08-20T12:10:59;101938.97;;;22.30;86.75
72438;BME280;60444;43.534;-5.674;2022-08-20T12:13:34;101909.75;;;22.16;86.55
72438;BME280;60444;43.534;-5.674;2022-08-20T12:16:00;101910.38;;;22.20;86.10
72438;BME280;60444;43.534;-5.674;2022-08-20T12:18:26;101946.13;;;22.32;86.17
72438;BME280;60444;43.534;-5.674;2022-08-20T12:20:52;101947.63;;;22.36;85.62
72438;BME280;60444;43.534;-5.674;2022-08-20T12:23:17;101948.13;;;22.41;85.86
72438;BME280;60444;43.534;-5.674;2022-08-20T12:25:43;101947.38;;;22.39;85.71
72438;BME280;60444;43.534;-5.674;2022-08-20T12:28:13;101939.25;;;22.49;85.33
72438;BME280;60444;43.534;-5.674;2022-08-20T12:30:39;101948.91;;;22.54;85.43
72438;BME280;60444;43.534;-5.674;2022-08-20T12:33:05;101923.19;;;22.43;84.96
72438;BME280;60444;43.534;-5.674;2022-08-20T12:35:31;101941.66;;;22.64;85.15
72438;BME280;60444;43.534;-5.674;2022-08-20T12:37:56;101919.72;;;22.63;84.57
72438;BME280;60444;43.534;-5.674;2022-08-20T12:40:26;101938.91;;;22.76;84.70
72438;BME280;60444;43.534;-5.674;2022-08-20T12:42:52;101928.00;;;22.74;84.43
72438;BME280;60444;43.534;-5.674;2022-08-20T12:45:18;101911.19;;;22.66;84.05
72438;BME280;60444;43.534;-5.674;2022-08-20T12:47:46;101918.97;;;22.72;84.14
72438;BME280;60444;43.534;-5.674;2022-08-20T12:50:21;101901.81;;;22.69;84.19